createdAt,value
2022-11-16T00:01:44.609Z,8.17
2022-11-16T00:04:12.103Z,9.97
2022-11-16T00:06:39.090Z,7.20
2022-11-16T00:09:24.151Z,8.93
2022-11-16T00:11:53.944Z,6.83
2022-11-16T00:14:22.523Z,8.07
2022-11-16T00:16:49.661Z,6.43
2022-11-16T00:19:17.129Z,7.03
2022-11-16T00:21:44.161Z,6.83
2022-11-16T00:24:13.646Z,7.30
2022-11-16T00:26:40.707Z,7.47
2022-11-16T00:29:12.284Z,11.00
2022-11-16T00:31:38.976Z,6.40
2022-11-16T00:34:05.658Z,7.13
2022-11-16T00:36:32.361Z,10.27
2022-11-16T00:38:59.082Z,8.73
2022-11-16T00:41:25.809Z,7.93
2022-11-16T00:43:52.495Z,7.47
2022-11-16T00:46:19.244Z,6.90
2022-11-16T00:48:45.904Z,8.10
2022-11-16T00:51:12.674Z,7.43
2022-11-16T00:53:39.629Z,8.03
2022-11-16T00:56:06.685Z,8.60
2022-11-16T00:58:33.692Z,7.87
2022-11-16T01:01:08.711Z,8.60
2022-11-16T01:03:36.741Z,8.60
2022-11-16T01:06:09.461Z,10.10
2022-11-16T01:08:38.087Z,11.13
2022-11-16T01:11:24.229Z,8.80
2022-11-16T01:13:51.358Z,10.80
2022-11-16T01:16:20.071Z,10.13
2022-11-16T01:18:52.556Z,11.13
2022-11-16T01:21:20.208Z,9.73
2022-11-16T01:23:47.019Z,10.20
2022-11-16T01:26:13.705Z,8.30
2022-11-16T01:28:40.828Z,9.50
2022-11-16T01:31:09.374Z,8.20
2022-11-16T01:33:36.490Z,9.03
2022-11-16T01:36:03.383Z,10.13
2022-11-16T01:38:30.317Z,10.63
2022-11-16T01:40:57.073Z,11.77
2022-11-16T01:43:25.395Z,7.97
2022-11-16T01:45:52.415Z,8.30
2022-11-16T01:48:29.104Z,8.13
2022-11-16T01:50:57.538Z,9.47
2022-11-16T01:53:25.369Z,9.80
2022-11-16T01:55:52.899Z,10.13
2022-11-16T01:58:23.127Z,9.60
2022-11-16T02:00:50.598Z,15.20
2022-11-16T02:03:19.650Z,9.17
2022-11-16T02:06:28.611Z,9.50
2022-11-16T02:09:55.571Z,12.20
2022-11-16T02:12:43.023Z,12.77
2022-11-16T02:15:44.893Z,10.10
2022-11-16T02:18:24.794Z,12.73
2022-11-16T02:21:08.655Z,8.93
2022-11-16T02:23:49.330Z,11.37
2022-11-16T02:26:28.203Z,9.30
2022-11-16T02:29:38.976Z,11.07
2022-11-16T02:32:35.695Z,14.33
2022-11-16T02:35:13.292Z,11.07
2022-11-16T02:37:47.047Z,9.97
2022-11-16T02:40:16.497Z,14.33
2022-11-16T02:42:52.888Z,10.47
2022-11-16T02:45:25.721Z,12.07
2022-11-16T02:47:55.778Z,10.57
2022-11-16T02:50:23.425Z,11.17
2022-11-16T02:52:50.098Z,9.80
2022-11-16T02:55:16.994Z,10.60
2022-11-16T02:57:57.534Z,10.93
2022-11-16T03:00:34.028Z,15.03
2022-11-16T03:03:10.059Z,12.17
2022-11-16T03:05:49.693Z,11.03
2022-11-16T03:08:27.337Z,10.47
2022-11-16T03:11:18.111Z,12.73
2022-11-16T03:13:46.323Z,8.63
2022-11-16T03:16:35.687Z,10.80
2022-11-16T03:19:10.123Z,9.40
2022-11-16T03:21:43.741Z,15.60
2022-11-16T03:24:10.818Z,9.20
2022-11-16T03:27:04.549Z,17.77
2022-11-16T03:29:36.828Z,10.33
2022-11-16T03:32:12.831Z,8.23
2022-11-16T03:34:44.730Z,10.33
2022-11-16T03:37:12.353Z,11.53
2022-11-16T03:39:40.695Z,8.40
2022-11-16T03:42:14.034Z,17.00
2022-11-16T03:44:42.040Z,9.57
2022-11-16T03:47:08.706Z,10.90
2022-11-16T03:49:35.426Z,7.70
2022-11-16T03:52:02.241Z,11.57
2022-11-16T03:54:28.949Z,11.80
2022-11-16T03:56:56.819Z,9.80
2022-11-16T03:59:23.567Z,9.40
2022-11-16T04:01:50.328Z,10.00
2022-11-16T04:04:35.534Z,9.33
2022-11-16T04:07:20.740Z,11.00
2022-11-16T04:10:06.092Z,8.90
2022-11-16T04:12:51.287Z,12.63
2022-11-16T04:15:36.932Z,12.10
2022-11-16T04:18:22.263Z,10.40
2022-11-16T04:21:07.657Z,12.30
2022-11-16T04:23:53.039Z,8.43
2022-11-16T04:26:39.772Z,12.40
2022-11-16T04:29:06.478Z,11.10
2022-11-16T04:31:51.867Z,11.70
2022-11-16T04:34:37.394Z,10.87
2022-11-16T04:37:22.912Z,10.60
2022-11-16T04:39:49.572Z,12.03
2022-11-16T04:42:19.893Z,12.10
2022-11-16T04:45:05.117Z,19.57
2022-11-16T04:47:32.084Z,11.47
2022-11-16T04:49:58.798Z,12.73
2022-11-16T04:52:25.525Z,13.80
2022-11-16T04:54:52.256Z,13.47
2022-11-16T04:57:19.001Z,11.30
2022-11-16T04:59:45.681Z,17.37
2022-11-16T05:02:12.458Z,10.97
2022-11-16T05:04:43.778Z,10.47
2022-11-16T05:07:13.363Z,12.97
2022-11-16T05:09:43.133Z,11.70
2022-11-16T05:12:11.928Z,11.77
2022-11-16T05:14:38.601Z,12.43
2022-11-16T05:17:05.312Z,13.50
2022-11-16T05:19:50.394Z,17.43
2022-11-16T05:22:17.266Z,14.90
2022-11-16T05:24:44.249Z,13.13
2022-11-16T05:27:15.313Z,25.80
2022-11-16T05:29:43.131Z,13.40
2022-11-16T05:32:11.472Z,14.27
2022-11-16T05:34:38.610Z,15.40
2022-11-16T05:37:06.086Z,13.73
2022-11-16T05:39:32.827Z,12.57
2022-11-16T05:41:59.560Z,15.90
2022-11-16T05:44:26.636Z,18.80
2022-11-16T05:46:53.554Z,16.33
2022-11-16T05:49:20.238Z,12.77
2022-11-16T05:51:47.442Z,12.70
2022-11-16T05:54:16.999Z,15.37
2022-11-16T05:56:43.869Z,14.23
2022-11-16T05:59:16.462Z,15.83
2022-11-16T06:01:43.789Z,14.60
2022-11-16T06:04:10.570Z,16.27
2022-11-16T06:06:37.379Z,14.77
2022-11-16T06:09:04.733Z,17.60
2022-11-16T06:11:35.750Z,17.53
2022-11-16T06:14:03.263Z,14.23
2022-11-16T06:16:30.005Z,19.30
2022-11-16T06:18:56.761Z,14.73
2022-11-16T06:21:23.658Z,15.37
2022-11-16T06:23:50.728Z,17.37
2022-11-16T06:26:17.675Z,14.87
2022-11-16T06:28:44.877Z,16.13
2022-11-16T06:31:11.614Z,16.73
2022-11-16T06:33:38.728Z,16.37
2022-11-16T06:36:05.786Z,15.93
2022-11-16T06:38:33.375Z,16.60
2022-11-16T06:41:01.389Z,18.30
2022-11-16T06:43:28.082Z,13.70
2022-11-16T06:45:57.691Z,18.30
2022-11-16T06:48:24.691Z,17.17
2022-11-16T06:50:52.165Z,14.43
2022-11-16T06:53:19.417Z,17.40
2022-11-16T06:55:46.164Z,20.53
2022-11-16T06:58:13.109Z,21.13
2022-11-16T07:00:42.652Z,15.07
2022-11-16T07:03:09.415Z,16.63
2022-11-16T07:05:40.868Z,17.47
2022-11-16T07:08:07.896Z,17.63
2022-11-16T07:10:34.647Z,15.83
2022-11-16T07:13:04.498Z,17.63
2022-11-16T07:15:32.041Z,19.53
2022-11-16T07:18:06.504Z,15.93
2022-11-16T07:20:34.479Z,16.23
2022-11-16T07:23:02.876Z,18.97
2022-11-16T07:25:29.899Z,16.77
2022-11-16T07:27:58.262Z,18.60
2022-11-16T07:30:25.454Z,16.77
2022-11-16T07:32:56.377Z,17.40
2022-11-16T07:35:23.062Z,19.43
2022-11-16T07:37:49.755Z,17.13
2022-11-16T07:40:16.645Z,16.23
2022-11-16T07:42:44.507Z,17.17
2022-11-16T07:45:12.152Z,17.90
2022-11-16T07:47:39.064Z,17.40
2022-11-16T07:50:06.557Z,22.20
2022-11-16T07:52:33.349Z,21.70
2022-11-16T07:55:01.643Z,22.10
2022-11-16T07:57:28.728Z,17.17
2022-11-16T07:59:55.585Z,15.70
2022-11-16T08:02:22.494Z,20.30
2022-11-16T08:04:50.163Z,18.43
2022-11-16T08:07:16.924Z,17.93
2022-11-16T08:09:43.771Z,15.70
2022-11-16T08:12:10.603Z,16.13
2022-11-16T08:14:37.308Z,19.37
2022-11-16T08:17:04.958Z,15.03
2022-11-16T08:19:31.687Z,15.50
2022-11-16T08:21:58.371Z,17.90
2022-11-16T08:24:25.238Z,19.80
2022-11-16T08:26:52.002Z,22.90
2022-11-16T08:29:18.798Z,16.50
2022-11-16T08:31:46.047Z,22.20
2022-11-16T08:34:13.082Z,16.17
2022-11-16T08:36:39.807Z,35.17
2022-11-16T08:39:06.526Z,31.67
2022-11-16T08:41:35.800Z,17.50
2022-11-16T08:44:02.689Z,21.20
2022-11-16T08:46:29.502Z,14.30
2022-11-16T08:48:57.505Z,21.10
2022-11-16T08:51:25.006Z,23.53
2022-11-16T08:53:56.756Z,16.10
2022-11-16T08:56:23.761Z,16.50
2022-11-16T08:58:58.146Z,19.77
2022-11-16T09:01:28.479Z,18.40
2022-11-16T09:03:56.088Z,17.97
2022-11-16T09:06:25.071Z,17.63
2022-11-16T09:08:52.135Z,16.13
2022-11-16T09:11:21.852Z,16.60
2022-11-16T09:13:50.318Z,17.57
2022-11-16T09:16:18.027Z,14.83
2022-11-16T09:18:47.096Z,15.60
2022-11-16T09:21:28.684Z,16.60
2022-11-16T09:23:57.109Z,17.90
2022-11-16T09:26:25.281Z,17.20
2022-11-16T09:28:58.173Z,14.73
2022-11-16T09:31:27.444Z,13.43
2022-11-16T09:33:58.285Z,14.40
2022-11-16T09:36:26.104Z,16.50
2022-11-16T09:39:25.835Z,21.53
2022-11-16T09:41:53.116Z,16.33
2022-11-16T09:44:25.590Z,15.03
2022-11-16T09:47:00.367Z,13.60
2022-11-16T09:49:42.708Z,20.80
2022-11-16T09:52:18.700Z,16.30
2022-11-16T09:54:46.812Z,14.20
2022-11-16T09:57:31.277Z,15.23
2022-11-16T10:00:03.790Z,15.07
2022-11-16T10:02:36.983Z,14.30
2022-11-16T10:05:28.989Z,16.57
2022-11-16T10:08:23.225Z,14.00
2022-11-16T10:11:11.487Z,21.00
2022-11-16T10:14:08.439Z,19.90
2022-11-16T10:16:45.113Z,12.70
2022-11-16T10:19:26.826Z,16.07
2022-11-16T10:22:12.108Z,14.90
2022-11-16T10:24:47.755Z,12.43
2022-11-16T10:27:39.141Z,11.47
2022-11-16T10:30:17.554Z,12.20
2022-11-16T10:32:47.661Z,12.10
2022-11-16T10:35:25.068Z,12.07
2022-11-16T10:37:53.858Z,12.23
2022-11-16T10:40:29.810Z,12.80
2022-11-16T10:43:13.128Z,11.77
2022-11-16T10:45:52.202Z,14.20
2022-11-16T10:48:30.874Z,12.60
2022-11-16T10:50:57.916Z,13.33
2022-11-16T10:53:34.258Z,13.57
2022-11-16T10:56:13.313Z,13.10
2022-11-16T10:59:18.653Z,11.70
2022-11-16T11:01:50.188Z,14.93
2022-11-16T11:04:18.297Z,15.20
2022-11-16T11:06:47.143Z,12.93
2022-11-16T11:09:22.863Z,11.47
2022-11-16T11:12:23.055Z,14.10
2022-11-16T11:15:11.401Z,11.20
2022-11-16T11:17:40.476Z,10.50
2022-11-16T11:20:18.080Z,11.10
2022-11-16T11:22:58.477Z,13.70
2022-11-16T11:25:49.563Z,18.00
2022-11-16T11:28:22.853Z,14.47
2022-11-16T11:31:02.770Z,12.90
2022-11-16T11:33:48.692Z,13.60
2022-11-16T11:36:38.485Z,12.60
2022-11-16T11:39:06.945Z,14.90
2022-11-16T11:42:00.215Z,15.40
2022-11-16T11:44:50.336Z,16.83
2022-11-16T11:47:59.357Z,18.80
2022-11-16T11:50:32.267Z,15.37
2022-11-16T11:53:15.412Z,15.83
2022-11-16T11:55:42.279Z,23.03
2022-11-16T11:58:15.984Z,15.30
2022-11-16T12:00:51.105Z,18.33
2022-11-16T12:03:26.886Z,14.93
2022-11-16T12:05:56.448Z,13.93
2022-11-16T12:08:48.840Z,15.30
2022-11-16T12:11:30.952Z,13.57
2022-11-16T12:14:05.518Z,13.10
2022-11-16T12:17:12.247Z,12.63
2022-11-16T12:20:17.157Z,12.63
2022-11-16T12:23:08.244Z,47.47
2022-11-16T12:25:55.444Z,14.53
2022-11-16T12:28:41.596Z,15.33
2022-11-16T12:31:29.432Z,15.60
2022-11-16T12:34:01.087Z,13.50
2022-11-16T12:36:39.001Z,11.70
2022-11-16T12:39:34.342Z,9.13
2022-11-16T12:42:16.055Z,16.27
2022-11-16T12:45:16.221Z,10.80
2022-11-16T12:47:55.241Z,12.13
2022-11-16T12:50:50.144Z,9.87
2022-11-16T12:53:23.186Z,13.20
2022-11-16T12:56:15.227Z,12.73
2022-11-16T12:58:41.899Z,10.40
2022-11-16T13:01:22.588Z,11.90
2022-11-16T13:04:05.613Z,11.20
2022-11-16T13:06:38.009Z,11.00
2022-11-16T13:09:18.500Z,15.30
2022-11-16T13:11:58.113Z,10.07
2022-11-16T13:14:33.401Z,12.53
2022-11-16T13:17:01.930Z,17.83
2022-11-16T13:19:28.998Z,9.30
2022-11-16T13:22:07.555Z,18.70
2022-11-16T13:24:58.743Z,12.00
2022-11-16T13:27:34.887Z,13.33
2022-11-16T13:30:26.884Z,10.53
2022-11-16T13:33:02.716Z,16.50
2022-11-16T13:35:29.987Z,14.20
2022-11-16T13:37:56.747Z,9.70
2022-11-16T13:40:25.475Z,12.53
2022-11-16T13:43:12.832Z,14.43
2022-11-16T13:46:05.347Z,9.77
2022-11-16T13:48:36.165Z,21.13
2022-11-16T13:51:15.988Z,20.83
2022-11-16T13:56:51.485Z,14.20
2022-11-16T13:59:25.548Z,20.47
2022-11-16T14:02:22.817Z,22.33
2022-11-16T14:04:58.500Z,10.27
2022-11-16T14:07:37.616Z,14.30
2022-11-16T14:10:06.004Z,8.60
2022-11-16T14:12:38.474Z,15.20
2022-11-16T14:15:31.589Z,12.70
2022-11-16T14:18:09.940Z,9.20
2022-11-16T14:20:44.165Z,8.77
2022-11-16T14:23:28.271Z,12.30
2022-11-16T14:26:18.806Z,14.80
2022-11-16T14:29:03.574Z,8.73
2022-11-16T14:31:45.484Z,9.73
2022-11-16T14:34:21.955Z,18.73
2022-11-16T14:36:49.740Z,16.30
2022-11-16T14:39:37.181Z,13.27
2022-11-16T14:42:14.503Z,16.20
2022-11-16T14:44:41.628Z,13.30
2022-11-16T14:47:23.512Z,13.07
2022-11-16T14:49:50.513Z,17.73
2022-11-16T14:52:27.454Z,21.03
2022-11-16T14:54:59.250Z,23.90
2022-11-16T14:57:25.974Z,8.77
2022-11-16T15:00:17.998Z,8.07
2022-11-16T15:02:51.561Z,15.50
2022-11-16T15:05:26.849Z,17.93
2022-11-16T15:07:54.471Z,15.40
2022-11-16T15:10:25.022Z,11.80
2022-11-16T15:12:53.797Z,12.63
2022-11-16T15:15:26.681Z,15.13
2022-11-16T15:17:59.139Z,19.03
2022-11-16T15:20:29.217Z,13.57
2022-11-16T15:22:58.606Z,11.63
2022-11-16T15:25:42.573Z,12.13
2022-11-16T15:28:18.345Z,20.10
2022-11-16T15:30:54.766Z,8.63
2022-11-16T15:33:45.578Z,13.80
2022-11-16T15:36:32.170Z,11.55
2022-11-16T15:39:01.001Z,14.17
2022-11-16T15:41:29.275Z,14.87
2022-11-16T15:44:14.183Z,15.00
2022-11-16T15:46:44.380Z,13.63
2022-11-16T15:49:24.700Z,13.70
2022-11-16T15:51:51.462Z,11.10
2022-11-16T15:54:51.156Z,14.23
2022-11-16T15:57:19.393Z,26.27
2022-11-16T15:59:54.587Z,25.63
2022-11-16T16:02:24.880Z,26.53
2022-11-16T16:04:51.839Z,14.20
2022-11-16T16:07:42.495Z,15.90
2022-11-16T16:10:27.694Z,22.93
2022-11-16T16:13:01.993Z,24.60
2022-11-16T16:15:29.925Z,17.73
2022-11-16T16:17:58.775Z,16.40
2022-11-16T16:20:31.855Z,14.37
2022-11-16T16:23:11.814Z,26.30
2022-11-16T16:25:38.504Z,16.00
2022-11-16T16:28:05.689Z,17.03
2022-11-16T16:30:34.736Z,21.93
2022-11-16T16:33:02.353Z,22.10
2022-11-16T16:35:29.337Z,17.90
2022-11-16T16:38:01.101Z,24.27
2022-11-16T16:40:28.759Z,27.50
2022-11-16T16:42:56.734Z,28.20
2022-11-16T16:45:35.073Z,25.87
2022-11-16T16:48:01.770Z,34.77
2022-11-16T16:50:28.805Z,32.23
2022-11-16T16:52:55.555Z,25.17
2022-11-16T16:55:22.381Z,29.10
2022-11-16T16:57:49.553Z,18.77
2022-11-16T17:00:16.936Z,25.07
2022-11-16T17:02:43.837Z,24.90
2022-11-16T17:05:10.964Z,19.87
2022-11-16T17:07:37.754Z,22.93
2022-11-16T17:10:04.918Z,26.07
2022-11-16T17:12:31.680Z,139.37
2022-11-16T17:14:58.461Z,186.17
2022-11-16T17:17:25.493Z,17.60
2022-11-16T17:19:52.842Z,22.63
2022-11-16T17:22:20.574Z,19.73
2022-11-16T17:24:47.732Z,19.07
2022-11-16T17:27:14.452Z,23.60
2022-11-16T17:29:41.201Z,33.23
2022-11-16T17:32:08.041Z,21.50
2022-11-16T17:34:35.163Z,28.63
2022-11-16T17:37:01.949Z,32.00
2022-11-16T17:39:28.639Z,36.13
2022-11-16T17:41:55.321Z,45.03
2022-11-16T17:44:22.446Z,39.87
2022-11-16T17:46:49.547Z,34.97
2022-11-16T17:49:16.755Z,40.53
2022-11-16T17:51:43.608Z,40.73
2022-11-16T17:54:10.730Z,40.47
2022-11-16T17:56:37.796Z,85.07
2022-11-16T17:59:04.541Z,49.20
2022-11-16T18:01:31.452Z,61.43
2022-11-16T18:04:00.333Z,46.90
2022-11-16T18:06:27.492Z,57.57
2022-11-16T18:08:54.747Z,39.60
2022-11-16T18:11:24.434Z,32.63
2022-11-16T18:13:59.041Z,29.80
2022-11-16T18:16:31.839Z,51.20
2022-11-16T18:19:00.901Z,38.63
2022-11-16T18:21:28.427Z,30.00
2022-11-16T18:23:55.495Z,38.50
2022-11-16T18:26:23.732Z,49.57
2022-11-16T18:28:51.882Z,50.50
2022-11-16T18:31:21.013Z,42.70
2022-11-16T18:33:49.410Z,42.07
2022-11-16T18:36:20.165Z,48.53
2022-11-16T18:38:47.586Z,59.10
2022-11-16T18:41:14.308Z,44.53
2022-11-16T18:44:02.952Z,53.57
2022-11-16T18:46:33.210Z,55.20
2022-11-16T18:49:00.383Z,45.90
2022-11-16T18:51:28.813Z,43.83
2022-11-16T18:53:56.353Z,36.07
2022-11-16T18:56:23.592Z,44.00
2022-11-16T18:58:52.227Z,41.80
2022-11-16T19:01:22.136Z,44.60
2022-11-16T19:03:49.279Z,47.57
2022-11-16T19:06:17.752Z,44.33
2022-11-16T19:08:49.060Z,39.87
2022-11-16T19:11:20.773Z,46.60
2022-11-16T19:13:56.797Z,53.27
2022-11-16T19:16:24.601Z,43.80
2022-11-16T19:18:51.623Z,51.67
2022-11-16T19:21:19.082Z,54.37
2022-11-16T19:23:48.288Z,42.40
2022-11-16T19:26:17.506Z,34.80
2022-11-16T19:28:46.440Z,33.93
2022-11-16T19:31:18.701Z,35.23
2022-11-16T19:33:46.119Z,35.67
2022-11-16T19:36:18.799Z,32.40
2022-11-16T19:38:47.090Z,27.70
2022-11-16T19:41:16.474Z,30.13
2022-11-16T19:43:43.665Z,30.97
2022-11-16T19:46:20.283Z,36.90
2022-11-16T19:48:49.308Z,29.27
2022-11-16T19:51:19.513Z,28.87
2022-11-16T19:53:46.624Z,28.50
2022-11-16T19:56:15.833Z,26.63
2022-11-16T19:58:43.483Z,27.60
2022-11-16T20:01:12.907Z,37.40
2022-11-16T20:03:42.624Z,33.60
2022-11-16T20:06:12.203Z,35.67
2022-11-16T20:08:42.437Z,31.43
2022-11-16T20:11:13.126Z,33.40
2022-11-16T20:13:41.942Z,39.37
2022-11-16T20:16:11.026Z,38.37
2022-11-16T20:18:38.696Z,46.43
2022-11-16T20:21:06.331Z,37.67
2022-11-16T20:23:37.615Z,44.70
2022-11-16T20:26:09.647Z,42.63
2022-11-16T20:28:41.667Z,45.33
2022-11-16T20:31:14.779Z,40.30
2022-11-16T20:33:41.727Z,37.87
2022-11-16T20:36:11.085Z,38.60
2022-11-16T20:38:39.181Z,48.67
2022-11-16T20:41:09.087Z,47.30
2022-11-16T20:43:36.688Z,47.20
2022-11-16T20:46:03.687Z,46.00
2022-11-16T20:48:30.412Z,43.90
2022-11-16T20:50:57.086Z,48.57
2022-11-16T20:53:24.135Z,38.30
2022-11-16T20:55:50.982Z,44.57
2022-11-16T20:58:22.612Z,43.90
2022-11-16T21:00:50.885Z,32.00
2022-11-16T21:03:17.647Z,31.00
2022-11-16T21:05:46.122Z,35.90
2022-11-16T21:08:12.961Z,34.80
2022-11-16T21:10:40.066Z,26.80
2022-11-16T21:13:30.898Z,28.30
2022-11-16T21:16:03.197Z,32.20
2022-11-16T21:18:30.951Z,29.67
2022-11-16T21:21:08.189Z,30.40
2022-11-16T21:23:36.436Z,35.23
2022-11-16T21:26:11.128Z,38.80
2022-11-16T21:28:38.679Z,31.63
2022-11-16T21:31:09.832Z,32.77
2022-11-16T21:33:37.265Z,26.13
2022-11-16T21:36:11.916Z,31.37
2022-11-16T21:38:39.084Z,32.37
2022-11-16T21:41:06.766Z,33.87
2022-11-16T21:43:36.092Z,31.17
2022-11-16T21:46:09.674Z,31.10
2022-11-16T21:48:37.267Z,30.70
2022-11-16T21:51:12.357Z,32.00
2022-11-16T21:53:39.763Z,28.13
2022-11-16T21:56:10.300Z,36.37
2022-11-16T21:58:38.987Z,34.40
2022-11-16T22:01:06.071Z,31.50
2022-11-16T22:03:33.774Z,27.90
2022-11-16T22:06:20.958Z,30.20
2022-11-16T22:08:48.532Z,29.30
2022-11-16T22:11:16.337Z,30.03
2022-11-16T22:13:43.712Z,37.30
2022-11-16T22:16:17.297Z,31.80
2022-11-16T22:18:44.202Z,30.77
2022-11-16T22:21:11.368Z,29.83
2022-11-16T22:23:38.499Z,30.10
2022-11-16T22:26:08.055Z,28.93
2022-11-16T22:28:35.665Z,33.43
2022-11-16T22:31:04.212Z,41.60
2022-11-16T22:33:31.720Z,36.00
2022-11-16T22:35:58.647Z,31.00
2022-11-16T22:38:26.258Z,33.67
2022-11-16T22:40:54.731Z,34.10
2022-11-16T22:43:26.860Z,34.70
2022-11-16T22:46:04.967Z,30.30
2022-11-16T22:48:38.874Z,28.90
2022-11-16T22:51:20.410Z,32.53
2022-11-16T22:53:47.283Z,35.23
2022-11-16T22:56:14.220Z,32.33
2022-11-16T22:58:41.167Z,30.00
2022-11-16T23:01:08.976Z,32.33
2022-11-16T23:03:36.514Z,30.53
2022-11-16T23:06:05.320Z,38.90
2022-11-16T23:08:33.229Z,30.07
2022-11-16T23:11:32.251Z,33.57
2022-11-16T23:14:18.128Z,31.20
2022-11-16T23:16:45.613Z,47.73
2022-11-16T23:19:33.409Z,33.27
2022-11-16T23:22:18.847Z,33.27
2022-11-16T23:25:04.584Z,32.77
2022-11-16T23:27:37.132Z,34.53
2022-11-16T23:30:11.890Z,30.43
2022-11-16T23:32:39.454Z,37.87
2022-11-16T23:35:06.542Z,31.33
2022-11-16T23:37:33.308Z,25.80
2022-11-16T23:40:00.039Z,34.60
2022-11-16T23:42:45.540Z,26.63
2022-11-16T23:45:12.233Z,36.23
2022-11-16T23:47:38.923Z,23.60
2022-11-16T23:50:05.919Z,24.97
2022-11-16T23:52:32.615Z,39.37
2022-11-16T23:54:59.268Z,27.07
2022-11-16T23:57:26.102Z,29.10
2022-11-16T23:59:52.828Z,32.37
